Briarcliff Manor, New York
Current Conditions -  °F | °C
As of 5:56 PM on Tuesday 27 Jan 2015 (Local Time) from KHPN Reporting Station
Scattered Clouds Scattered Clouds  
Wind Chill:   Ceiling: Unl
Heat Index: 21°   Visibility: 10mi
Dew Point: 12°   Wind: 20mph
Humidity: 68%   Direction: 340°NNW
Pressure: 29.67"   Gusts: 28mph
Location:  41.15°N, 73.83°W
Report Text: KHPN 272256Z 34017G24KT 10SM SCT055 M06/M11 A2967 RMK AO2 SLP059 T10611111
Loading
Personal Weather Stations






























Interactive Weather Map New forecast layout! Learn more

10-Day Weather Forecast

Advertisements
Track Severe Weather on mobile